Terminal Aerodrome Forecast
Issued by NWS Grand Forks, ND

Home | Current Version | Previous Version | Graphics & Text | Print | Product List | Glossary On
Versions: 1 2 3 4 5 6 7 8 9 10 11 12 13 14
016
FTUS43 KFGF 280520
TAFGFK
TAF
KGFK 280520Z 2806/2906 35006KT P6SM SCT250
     FM281700 02006KT P6SM SCT050
     FM290300 04004KT P6SM SCT250=

USA.gov is the U.S. government's official web portal to all federal, state and local government web resources and services.